Time;durP1;ratioP1;P1;durP2;ratioP2;P2;SDS_P1;SDS_P2;PMS_P1;PMS_P2;Temp;Humidity;BMP_temperature;BMP_pressure;BME280_temperature;BME280_humidity;BME280_pressure;Samples;Min_cycle;Max_cycle;Signal;HPM_P1;HPM_P2
2022/08/03 00:01:18;;;;;;;2.40;2.17;;;17.60;99.90;;;;;;4977121;28;20338;-81
2022/08/03 00:03:44;;;;;;;3.93;2.27;;;;;;;;;;4978043;28;20177;-82
2022/08/03 00:06:10;;;;;;;4.97;2.50;;;;;;;;;;4976632;28;20242;-82
2022/08/03 00:08:36;;;;;;;3.00;2.30;;;17.60;99.90;;;;;;4982652;28;20180;-81
2022/08/03 00:11:02;;;;;;;3.37;2.10;;;17.50;99.90;;;;;;4990133;28;20178;-82
2022/08/03 00:13:28;;;;;;;3.53;2.60;;;17.50;99.90;;;;;;4991708;28;20190;-82
2022/08/03 00:15:54;;;;;;;2.60;2.40;;;17.50;99.90;;;;;;4985056;28;20188;-82
2022/08/03 00:18:20;;;;;;;2.70;2.13;;;17.50;99.90;;;;;;4976104;28;20244;-81
2022/08/03 00:20:46;;;;;;;2.80;2.17;;;17.50;99.90;;;;;;4978255;28;20220;-81
2022/08/03 00:23:12;;;;;;;2.47;2.00;;;;;;;;;;4977516;28;20201;-81
2022/08/03 00:25:38;;;;;;;4.83;2.60;;;17.50;99.90;;;;;;4976168;28;20558;-82
2022/08/03 00:28:05;;;;;;;2.77;2.30;;;17.40;99.90;;;;;;4977185;28;20200;-81
2022/08/03 00:30:31;;;;;;;2.90;2.03;;;17.10;99.90;;;;;;4977941;28;20177;-82
2022/08/03 00:32:57;;;;;;;2.27;2.00;;;17.40;99.90;;;;;;4978008;28;20187;-82
2022/08/03 00:35:23;;;;;;;2.37;2.03;;;17.30;99.90;;;;;;4978291;28;20285;-82
2022/08/03 00:37:49;;;;;;;2.60;2.10;;;17.20;99.90;;;;;;4975909;28;20270;-82
2022/08/03 00:40:17;;;;;;;2.57;2.23;;;17.30;99.90;;;;;;4977586;28;20218;-82
2022/08/03 00:42:52;;;;;;;3.00;2.30;;;17.20;99.90;;;;;;4978406;28;20244;-82
2022/08/03 00:45:23;;;;;;;3.90;2.33;;;17.20;99.90;;;;;;4975818;28;20614;-82
2022/08/03 00:47:49;;;;;;;3.20;2.00;;;17.20;99.90;;;;;;4976192;28;20670;-82
2022/08/03 00:50:16;;;;;;;3.70;2.10;;;17.10;99.90;;;;;;4976172;28;20275;-82
2022/08/03 00:52:42;;;;;;;2.27;2.07;;;17.10;99.90;;;;;;4977171;28;20202;-82
2022/08/03 00:55:08;;;;;;;4.20;2.10;;;17.20;99.90;;;;;;4975960;28;20184;-84
2022/08/03 00:57:34;;;;;;;2.50;2.10;;;17.10;99.90;;;;;;4976301;28;20209;-82
2022/08/03 01:00:00;;;;;;;4.00;2.20;;;17.10;99.90;;;;;;4976073;28;20200;-82
2022/08/03 01:02:27;;;;;;;2.50;1.90;;;17.10;99.90;;;;;;4977579;28;20200;-82
2022/08/03 01:04:54;;;;;;;3.30;1.93;;;17.10;99.90;;;;;;4979238;28;20590;-82
2022/08/03 01:07:32;;;;;;;2.73;2.20;;;17.10;99.90;;;;;;4979545;28;20204;-82
2022/08/03 01:10:07;;;;;;;2.47;2.27;;;17.10;99.90;;;;;;4976545;28;20184;-82
2022/08/03 01:12:58;;;;;;;3.43;2.03;;;17.10;99.90;;;;;;4975825;28;20176;-82
2022/08/03 01:15:45;;;;;;;2.63;2.10;;;17.10;99.90;;;;;;4977112;28;20637;-82
2022/08/03 01:18:24;;;;;;;2.90;2.10;;;17.00;99.90;;;;;;4975843;28;20565;-82
2022/08/03 01:20:54;;;;;;;3.83;2.03;;;17.00;99.90;;;;;;4977374;28;20177;-82
2022/08/03 01:23:41;;;;;;;3.60;2.33;;;17.00;99.90;;;;;;4975188;28;20278;-82
2022/08/03 01:26:26;;;;;;;3.60;2.10;;;16.90;99.90;;;;;;4975746;28;20180;-82
2022/08/03 01:29:02;;;;;;;2.70;2.00;;;16.90;99.90;;;;;;4976723;28;20569;-82
2022/08/03 01:31:47;;;;;;;2.30;1.93;;;16.90;99.90;;;;;;4977014;28;20260;-82
2022/08/03 01:34:16;;;;;;;2.87;2.30;;;16.90;99.90;;;;;;4976014;28;20615;-82
2022/08/03 01:36:52;;;;;;;3.23;1.90;;;16.80;99.90;;;;;;4975136;28;20200;-82
2022/08/03 01:39:19;;;;;;;5.63;2.30;;;16.80;99.90;;;;;;4975673;28;20195;-82
2022/08/03 01:41:53;;;;;;;2.70;2.23;;;16.80;99.90;;;;;;4975502;28;20655;-81
2022/08/03 01:44:20;;;;;;;3.07;2.40;;;16.80;99.90;;;;;;4974863;28;20256;-82
2022/08/03 01:46:50;;;;;;;4.60;2.17;;;16.70;99.90;;;;;;4975206;28;20203;-82
2022/08/03 01:49:16;;;;;;;2.90;2.60;;;16.70;99.90;;;;;;4975724;28;20181;-82
2022/08/03 01:51:44;;;;;;;3.03;2.30;;;16.70;99.90;;;;;;4975563;28;20333;-82
2022/08/03 01:54:12;;;;;;;3.17;2.20;;;16.70;99.90;;;;;;4977017;28;20184;-82
2022/08/03 01:56:39;;;;;;;2.37;2.10;;;16.70;99.90;;;;;;4975178;28;20249;-83
2022/08/03 01:59:07;;;;;;;2.73;2.20;;;16.70;99.90;;;;;;4976245;28;20520;-82
2022/08/03 02:01:35;;;;;;;2.57;2.03;;;16.70;99.90;;;;;;4976855;28;20207;-83
2022/08/03 02:04:02;;;;;;;2.40;1.90;;;16.70;99.90;;;;;;4976944;28;20189;-81
2022/08/03 02:06:30;;;;;;;3.70;2.30;;;16.60;99.90;;;;;;4975326;28;20200;-82
2022/08/03 02:08:59;;;;;;;3.37;2.17;;;16.60;99.90;;;;;;4976464;28;20610;-82
2022/08/03 02:11:26;;;;;;;2.23;2.03;;;16.60;99.90;;;;;;4975535;28;20180;-82
2022/08/03 02:13:53;;;;;;;4.03;2.30;;;16.60;99.90;;;;;;4976933;28;20179;-81
2022/08/03 02:16:21;;;;;;;3.07;2.20;;;16.50;99.90;;;;;;4976290;28;20183;-82
2022/08/03 02:18:47;;;;;;;2.40;2.20;;;16.60;99.90;;;;;;4980733;28;20631;-82
2022/08/03 02:21:14;;;;;;;2.73;2.43;;;16.50;99.90;;;;;;4985066;28;20180;-82
2022/08/03 02:23:40;;;;;;;7.47;2.57;;;16.50;99.90;;;;;;4988507;28;20224;-82
2022/08/03 02:26:11;;;;;;;6.43;2.50;;;16.50;99.90;;;;;;4986179;28;20191;-82
2022/08/03 02:28:40;;;;;;;3.00;2.40;;;16.50;99.90;;;;;;4974747;28;20263;-82
2022/08/03 02:31:12;;;;;;;2.67;2.47;;;16.50;99.90;;;;;;4976155;28;20204;-82
2022/08/03 02:33:43;;;;;;;2.40;2.10;;;16.40;99.90;;;;;;4975482;28;20169;-83
2022/08/03 02:36:12;;;;;;;2.60;2.20;;;16.40;99.90;;;;;;4975396;28;20175;-83
2022/08/03 02:38:41;;;;;;;4.13;2.50;;;16.40;99.90;;;;;;4976939;28;20184;-82
2022/08/03 02:41:12;;;;;;;2.67;2.20;;;16.40;99.90;;;;;;4975049;28;20523;-81
2022/08/03 02:43:40;;;;;;;3.20;2.20;;;16.40;99.90;;;;;;4975447;28;20192;-82
2022/08/03 02:46:08;;;;;;;5.60;2.50;;;16.40;99.90;;;;;;4974512;28;20181;-82
2022/08/03 02:48:36;;;;;;;4.03;2.53;;;16.40;99.90;;;;;;4975481;28;20680;-82
2022/08/03 02:51:03;;;;;;;3.00;2.60;;;16.40;99.90;;;;;;4975187;28;20181;-82
2022/08/03 02:53:30;;;;;;;3.27;2.50;;;16.40;99.90;;;;;;4979221;28;20252;-83
2022/08/03 02:55:58;;;;;;;3.37;2.60;;;16.40;99.90;;;;;;4977813;28;20271;-82
2022/08/03 02:58:25;;;;;;;5.13;2.30;;;16.40;99.90;;;;;;4977697;28;20745;-82
2022/08/03 03:00:52;;;;;;;3.40;2.87;;;16.30;99.90;;;;;;4977937;28;20279;-82
2022/08/03 03:03:19;;;;;;;2.83;2.43;;;16.30;99.90;;;;;;4977440;28;20637;-82
2022/08/03 03:05:46;;;;;;;2.77;2.20;;;16.40;99.90;;;;;;4977390;28;20219;-82
2022/08/03 03:08:13;;;;;;;4.10;2.60;;;16.30;99.90;;;;;;4977121;28;20200;-82
2022/08/03 03:10:40;;;;;;;3.30;2.50;;;16.30;99.90;;;;;;4977694;28;20208;-82
2022/08/03 03:13:07;;;;;;;3.07;2.43;;;16.30;99.90;;;;;;4977907;28;20235;-82
2022/08/03 03:15:36;;;;;;;3.17;2.37;;;16.30;99.90;;;;;;4977451;28;20215;-82
2022/08/03 03:18:02;;;;;;;3.47;2.63;;;16.30;99.90;;;;;;4978302;28;20589;-82
2022/08/03 03:20:29;;;;;;;5.13;2.70;;;16.20;99.90;;;;;;4977530;28;20204;-83
2022/08/03 03:22:56;;;;;;;2.80;2.37;;;16.20;99.90;;;;;;4977919;28;20204;-82
2022/08/03 03:25:23;;;;;;;2.47;2.27;;;16.10;99.90;;;;;;4978239;28;20274;-82
2022/08/03 03:27:48;;;;;;;2.43;2.23;;;16.10;99.90;;;;;;4979052;28;20196;-84
2022/08/03 03:30:14;;;;;;;2.60;2.40;;;16.00;99.90;;;;;;4977840;28;20210;-82
2022/08/03 03:32:40;;;;;;;3.73;2.73;;;16.00;99.90;;;;;;4977449;28;20222;-82
2022/08/03 03:35:07;;;;;;;3.37;2.47;;;16.00;99.90;;;;;;4979110;28;20181;-82
2022/08/03 03:37:33;;;;;;;2.67;2.47;;;16.00;99.90;;;;;;4977150;28;20207;-83
2022/08/03 03:39:59;;;;;;;3.90;2.77;;;16.00;99.90;;;;;;4976756;28;20282;-82
2022/08/03 03:42:25;;;;;;;3.00;2.60;;;16.00;99.90;;;;;;4978560;28;20609;-82
2022/08/03 03:44:51;;;;;;;3.30;3.00;;;15.90;99.90;;;;;;4978457;28;20202;-82
2022/08/03 03:47:17;;;;;;;2.70;2.30;;;15.90;99.90;;;;;;4976967;28;20204;-83
2022/08/03 03:49:43;;;;;;;4.03;2.70;;;15.90;99.90;;;;;;4977525;28;20283;-82
2022/08/03 03:52:09;;;;;;;7.57;2.77;;;15.80;99.90;;;;;;4977404;28;20191;-82
2022/08/03 03:54:43;;;;;;;2.87;2.57;;;15.80;99.90;;;;;;4977803;28;20187;-82
2022/08/03 03:57:10;;;;;;;5.07;2.67;;;15.90;99.90;;;;;;4978973;28;20200;-82
2022/08/03 03:59:41;;;;;;;3.17;2.43;;;15.90;99.90;;;;;;4978615;28;20183;-82
2022/08/03 04:02:08;;;;;;;3.73;2.50;;;15.80;99.90;;;;;;4976947;28;20203;-83
2022/08/03 04:13:08;;;;;;;10.00;2.90;;;15.80;99.90;;;;;;4990193;28;20168;-81
2022/08/03 04:15:40;;;;;;;3.77;2.97;;;15.80;99.90;;;;;;4987988;28;20187;-81
2022/08/03 04:18:10;;;;;;;3.70;2.67;;;15.80;99.90;;;;;;4979287;28;20196;-82
2022/08/03 04:20:37;;;;;;;3.07;2.70;;;15.80;99.90;;;;;;4979181;28;20172;-82
2022/08/03 04:23:05;;;;;;;3.80;3.00;;;15.80;99.90;;;;;;4977834;28;20567;-82
2022/08/03 04:25:33;;;;;;;3.70;2.77;;;15.80;99.90;;;;;;4978338;28;20601;-83
2022/08/03 04:28:03;;;;;;;4.37;2.73;;;15.80;99.90;;;;;;4978139;28;20196;-82
2022/08/03 04:30:32;;;;;;;4.10;2.80;;;15.70;99.90;;;;;;4983780;28;20264;-82
2022/08/03 04:32:59;;;;;;;3.27;2.93;;;15.70;99.90;;;;;;4988479;28;20272;-82
2022/08/03 04:35:28;;;;;;;4.17;2.87;;;15.80;99.90;;;;;;4990857;28;20177;-82
2022/08/03 04:37:56;;;;;;;4.43;2.73;;;15.80;99.90;;;;;;4982142;28;20727;-82
2022/08/03 04:40:29;;;;;;;5.73;2.70;;;15.80;99.90;;;;;;4976774;28;20259;-82
2022/08/03 04:42:57;;;;;;;3.17;2.70;;;15.80;99.90;;;;;;4976809;28;20203;-82
2022/08/03 04:45:24;;;;;;;2.57;2.37;;;15.90;99.90;;;;;;4976509;28;20173;-82
2022/08/03 04:47:51;;;;;;;3.10;2.77;;;15.90;99.90;;;;;;4977863;28;20198;-82
2022/08/03 04:50:17;;;;;;;3.43;2.60;;;16.00;99.90;;;;;;4977147;28;20176;-83
2022/08/03 04:52:43;;;;;;;4.40;3.03;;;16.00;99.90;;;;;;4977284;28;20607;-82
2022/08/03 04:55:09;;;;;;;4.13;3.10;;;16.10;99.90;;;;;;4976584;28;20200;-83
2022/08/03 04:57:35;;;;;;;3.23;2.30;;;16.10;99.90;;;;;;4974839;28;20568;-83
2022/08/03 05:00:01;;;;;;;3.63;2.70;;;16.20;99.90;;;;;;4974968;28;20177;-83
2022/08/03 05:02:26;;;;;;;2.80;2.50;;;16.30;99.90;;;;;;4976261;28;20193;-83
2022/08/03 05:04:52;;;;;;;4.13;2.33;;;16.30;99.90;;;;;;4976740;28;20174;-83
2022/08/03 05:07:18;;;;;;;4.20;2.20;;;;;;;;;;4976832;28;20202;-83
2022/08/03 05:09:45;;;;;;;5.20;2.67;;;16.40;99.90;;;;;;4976194;28;20172;-83
2022/08/03 05:12:10;;;;;;;3.17;2.47;;;16.40;99.90;;;;;;4976621;28;20180;-83
2022/08/03 05:14:40;;;;;;;2.37;2.00;;;16.50;99.90;;;;;;4974945;28;20617;-82
2022/08/03 05:17:07;;;;;;;2.93;2.40;;;16.70;99.90;;;;;;4976676;28;20200;-82
2022/08/03 05:19:33;;;;;;;2.80;2.40;;;16.70;99.90;;;;;;4975488;28;20180;-82
2022/08/03 05:21:59;;;;;;;3.80;2.07;;;16.70;99.90;;;;;;4975038;28;20203;-82
2022/08/03 05:24:25;;;;;;;2.73;2.10;;;16.80;99.90;;;;;;4975157;28;20177;-83
2022/08/03 05:26:50;;;;;;;2.70;1.90;;;16.90;99.90;;;;;;4975547;28;20670;-82
2022/08/03 05:29:16;;;;;;;2.50;2.10;;;16.90;99.90;;;;;;4976855;28;20179;-82
2022/08/03 05:31:42;;;;;;;3.33;2.43;;;17.00;99.90;;;;;;4975866;28;20576;-82
2022/08/03 05:34:07;;;;;;;2.43;2.23;;;17.10;99.90;;;;;;4978656;28;20172;-82
2022/08/03 05:36:33;;;;;;;2.77;2.10;;;17.10;99.90;;;;;;4976897;28;20205;-83
2022/08/03 05:38:59;;;;;;;2.97;1.90;;;17.20;99.90;;;;;;4979417;28;20223;-82
2022/08/03 05:41:24;;;;;;;3.60;2.17;;;17.30;99.90;;;;;;4977881;28;20247;-82
2022/08/03 05:43:53;;;;;;;3.77;2.00;;;17.30;99.90;;;;;;4976024;28;20210;-83
2022/08/03 05:46:19;;;;;;;7.83;2.27;;;17.50;99.90;;;;;;4975231;28;20190;-82
2022/08/03 05:48:45;;;;;;;5.07;2.10;;;17.50;99.90;;;;;;4977478;28;20172;-82
2022/08/03 05:51:11;;;;;;;2.23;2.03;;;17.50;99.90;;;;;;4978089;28;20181;-82
2022/08/03 05:53:37;;;;;;;5.70;2.20;;;17.60;99.90;;;;;;4974798;28;20271;-82
2022/08/03 05:56:03;;;;;;;5.20;2.07;;;17.60;99.90;;;;;;4974505;28;20219;-81
2022/08/03 05:58:29;;;;;;;2.90;1.80;;;17.70;99.90;;;;;;4976001;28;20222;-82
2022/08/03 06:00:55;;;;;;;5.47;2.37;;;17.70;99.90;;;;;;4974983;28;20280;-82
2022/08/03 06:03:20;;;;;;;5.17;2.20;;;16.90;99.90;;;;;;4974205;28;20227;-82
2022/08/03 06:05:46;;;;;;;4.47;2.10;;;18.00;99.90;;;;;;4975460;28;20173;-82
2022/08/03 06:08:12;;;;;;;5.43;2.10;;;18.00;99.90;;;;;;4975731;28;20192;-82
2022/08/03 06:10:38;;;;;;;3.77;2.00;;;18.10;99.90;;;;;;4975873;28;20172;-81
2022/08/03 06:13:04;;;;;;;4.40;2.53;;;18.20;99.90;;;;;;4975173;28;20250;-82
2022/08/03 06:15:32;;;;;;;5.10;3.00;;;18.30;99.90;;;;;;4974369;28;20193;-82
2022/08/03 06:17:58;;;;;;;2.67;2.00;;;18.30;99.90;;;;;;4974525;28;20201;-82
2022/08/03 06:20:24;;;;;;;3.13;1.90;;;18.40;99.90;;;;;;4976775;28;20574;-82
2022/08/03 06:22:50;;;;;;;2.70;2.13;;;18.50;99.90;;;;;;4975443;28;20422;-82
2022/08/03 06:25:16;;;;;;;2.00;1.73;;;18.50;99.90;;;;;;4976826;28;20205;-82
2022/08/03 06:27:42;;;;;;;3.53;1.87;;;18.60;99.90;;;;;;4979047;28;20247;-82
2022/08/03 06:30:09;;;;;;;4.67;2.07;;;18.70;99.90;;;;;;4981777;28;20169;-82
2022/08/03 06:32:44;;;;;;;4.27;1.93;;;18.70;99.90;;;;;;4980605;28;20264;-82
2022/08/03 06:35:10;;;;;;;2.50;2.00;;;18.70;99.90;;;;;;4980255;28;20177;-82
2022/08/03 06:37:48;;;;;;;2.67;2.00;;;18.80;99.90;;;;;;4981017;28;20199;-83
2022/08/03 06:40:17;;;;;;;2.63;2.03;;;19.00;99.90;;;;;;4981360;28;20239;-83
2022/08/03 06:42:43;;;;;;;3.47;1.80;;;19.10;99.90;;;;;;4981674;28;20229;-83
2022/08/03 06:45:10;;;;;;;4.37;2.13;;;19.10;99.90;;;;;;4983431;28;20174;-83
2022/08/03 06:47:37;;;;;;;2.20;2.00;;;19.20;99.90;;;;;;4984528;28;20224;-82
2022/08/03 06:50:06;;;;;;;2.70;1.90;;;19.30;99.90;;;;;;4983608;28;20178;-82
2022/08/03 06:52:32;;;;;;;1.90;1.70;;;19.40;99.90;;;;;;4978888;28;20177;-81
2022/08/03 06:54:58;;;;;;;3.33;1.93;;;19.50;99.90;;;;;;4977062;28;20236;-81
2022/08/03 06:57:24;;;;;;;5.53;2.13;;;19.60;99.90;;;;;;4975091;28;20230;-81
2022/08/03 06:59:49;;;;;;;3.33;1.80;;;19.80;99.90;;;;;;4977106;28;20183;-81
2022/08/03 07:02:17;;;;;;;4.90;1.80;;;19.90;99.90;;;;;;4977119;28;20199;-81
2022/08/03 07:04:43;;;;;;;3.23;1.83;;;20.00;99.90;;;;;;4975520;28;20182;-81
2022/08/03 07:07:08;;;;;;;1.83;1.37;;;20.10;99.90;;;;;;4975317;28;20198;-81
2022/08/03 07:09:34;;;;;;;4.33;1.70;;;20.20;99.90;;;;;;4975554;28;20174;-81
2022/08/03 07:12:01;;;;;;;2.97;2.10;;;20.30;99.90;;;;;;4975039;28;20263;-81
2022/08/03 07:14:26;;;;;;;2.77;2.00;;;20.40;99.90;;;;;;4975876;28;20207;-81
2022/08/03 07:16:52;;;;;;;5.07;2.13;;;20.50;99.90;;;;;;4975653;28;20202;-81
2022/08/03 07:19:18;;;;;;;1.93;1.67;;;20.60;99.90;;;;;;4977264;28;20183;-82
2022/08/03 07:21:44;;;;;;;3.43;1.80;;;20.70;99.90;;;;;;4976437;28;20273;-81
2022/08/03 07:24:10;;;;;;;7.93;2.13;;;20.80;99.90;;;;;;4976587;28;20184;-81
2022/08/03 07:26:36;;;;;;;4.67;1.80;;;20.90;99.90;;;;;;4975989;28;20666;-81
2022/08/03 07:29:02;;;;;;;2.33;1.60;;;21.10;99.90;;;;;;4975634;28;20187;-82
2022/08/03 07:31:27;;;;;;;3.27;1.80;;;21.20;99.90;;;;;;4976157;28;20551;-81
2022/08/03 07:33:53;;;;;;;3.67;1.63;;;21.40;99.90;;;;;;4978596;28;20183;-81
2022/08/03 07:36:19;;;;;;;2.13;1.80;;;21.80;99.90;;;;;;4976221;28;20184;-81
2022/08/03 07:38:44;;;;;;;2.93;1.90;;;21.80;99.90;;;;;;4975744;28;20183;-80
2022/08/03 07:41:10;;;;;;;2.13;1.70;;;21.90;99.90;;;;;;4976228;28;20226;-81
2022/08/03 07:43:36;;;;;;;1.93;1.70;;;22.10;99.90;;;;;;4976944;28;20679;-81
2022/08/03 07:46:02;;;;;;;1.87;1.67;;;22.30;99.90;;;;;;4975906;28;20176;-81
2022/08/03 07:48:27;;;;;;;3.47;1.97;;;22.40;99.90;;;;;;4975882;28;20197;-81
2022/08/03 07:50:53;;;;;;;2.67;1.87;;;22.60;99.90;;;;;;4976181;28;20181;-80
2022/08/03 07:53:19;;;;;;;1.80;1.67;;;22.70;99.90;;;;;;4975793;28;20650;-80
2022/08/03 07:55:44;;;;;;;3.33;2.00;;;22.80;99.90;;;;;;4976859;28;20177;-80
2022/08/03 07:58:14;;;;;;;3.40;2.00;;;23.00;99.90;;;;;;4976981;28;20261;-80
2022/08/03 08:00:41;;;;;;;1.77;1.67;;;23.10;99.90;;;;;;4976226;28;20197;-81
2022/08/03 08:03:07;;;;;;;1.73;1.60;;;23.10;99.90;;;;;;4974344;28;20546;-80
2022/08/03 08:05:33;;;;;;;4.30;1.87;;;23.30;99.90;;;;;;4974630;28;20177;-80
2022/08/03 08:08:00;;;;;;;2.23;1.60;;;23.40;99.90;;;;;;4976445;28;20197;-79
2022/08/03 08:10:26;;;;;;;5.27;1.80;;;23.50;99.90;;;;;;4974229;28;20184;-79
2022/08/03 08:12:53;;;;;;;1.83;1.70;;;23.60;99.90;;;;;;4974552;28;20216;-79
2022/08/03 08:15:18;;;;;;;1.73;1.63;;;23.70;99.90;;;;;;4973765;28;20756;-79
2022/08/03 08:17:47;;;;;;;1.93;1.37;;;23.90;99.90;;;;;;4973905;28;20200;-79
2022/08/03 08:20:18;;;;;;;3.17;1.60;;;24.10;99.90;;;;;;4975441;28;20177;-80
2022/08/03 08:22:44;;;;;;;1.80;1.70;;;24.30;99.90;;;;;;4974180;28;20237;-80
2022/08/03 08:25:10;;;;;;;2.13;1.67;;;24.50;99.90;;;;;;4973792;28;20177;-80
2022/08/03 08:27:43;;;;;;;2.70;1.30;;;24.70;99.90;;;;;;4974592;28;20255;-80
2022/08/03 08:30:09;;;;;;;1.37;1.20;;;25.00;99.90;;;;;;4976210;28;20621;-80
2022/08/03 08:32:36;;;;;;;1.70;1.43;;;25.20;99.90;;;;;;4975226;28;20181;-80
2022/08/03 08:35:03;;;;;;;1.87;1.40;;;25.40;99.90;;;;;;4977024;28;20204;-80
2022/08/03 08:37:28;;;;;;;2.43;1.20;;;25.60;99.90;;;;;;4977174;28;20203;-81
2022/08/03 08:39:55;;;;;;;1.27;1.17;;;25.80;99.90;;;;;;4977320;28;20194;-81
2022/08/03 08:42:21;;;;;;;2.60;1.70;;;25.90;99.90;;;;;;4975017;28;20705;-80
2022/08/03 08:44:47;;;;;;;3.97;1.33;;;26.00;99.90;;;;;;4975708;28;20246;-80
2022/08/03 08:47:14;;;;;;;1.97;1.30;;;26.10;99.90;;;;;;4976768;28;20195;-81
2022/08/03 08:49:40;;;;;;;2.00;1.37;;;26.20;99.90;;;;;;4977088;28;20176;-80
2022/08/03 08:52:10;;;;;;;1.97;1.23;;;26.40;99.90;;;;;;4978668;28;20517;-81
2022/08/03 08:54:39;;;;;;;1.20;1.10;;;26.50;99.90;;;;;;4981766;28;20173;-81
2022/08/03 08:57:06;;;;;;;3.27;1.40;;;26.50;99.90;;;;;;4986663;28;20202;-79
2022/08/03 08:59:35;;;;;;;2.37;1.57;;;26.60;99.90;;;;;;4981010;28;20247;-80
2022/08/03 09:02:01;;;;;;;3.93;1.43;;;26.60;99.90;;;;;;4979720;28;20287;-79
2022/08/03 09:04:30;;;;;;;1.70;1.40;;;26.80;99.90;;;;;;4975251;28;20203;-79
2022/08/03 09:06:56;;;;;;;1.30;1.20;;;26.90;99.90;;;;;;4975780;28;20194;-80
2022/08/03 09:09:22;;;;;;;1.67;1.23;;;27.00;99.90;;;;;;4973520;28;20541;-80
2022/08/03 09:11:48;;;;;;;2.40;1.40;;;27.10;99.90;;;;;;4975371;28;20176;-81
2022/08/03 09:14:14;;;;;;;2.07;1.40;;;27.30;99.90;;;;;;4975003;28;20179;-80
2022/08/03 09:17:03;;;;;;;1.73;1.40;;;27.40;99.90;;;;;;4975433;28;20286;-79
2022/08/03 09:19:31;;;;;;;1.80;1.30;;;27.50;99.90;;;;;;4974919;28;20247;-79
2022/08/03 09:22:09;;;;;;;1.50;1.40;;;27.80;99.90;;;;;;4974779;28;20220;-79
2022/08/03 09:24:36;;;;;;;1.73;1.37;;;27.90;99.90;;;;;;4974449;28;20184;-79
2022/08/03 09:27:05;;;;;;;1.33;1.23;;;28.20;99.90;;;;;;4975011;28;20204;-78
2022/08/03 09:29:32;;;;;;;1.73;1.23;;;28.40;99.90;;;;;;4975074;28;20188;-77
2022/08/03 09:32:04;;;;;;;2.87;1.20;;;28.50;99.90;;;;;;4975948;28;20199;-79
2022/08/03 09:34:30;;;;;;;1.57;1.30;;;28.60;99.90;;;;;;4975709;28;20554;-79
2022/08/03 09:36:58;;;;;;;1.10;1.00;;;28.70;99.90;;;;;;4974750;28;20214;-80
2022/08/03 09:39:30;;;;;;;1.10;1.00;;;28.90;99.90;;;;;;4975151;28;20264;-83
2022/08/03 09:42:13;;;;;;;1.47;1.10;;;28.90;99.90;;;;;;4974792;28;20684;-80
2022/08/03 09:44:44;;;;;;;1.20;1.03;;;29.10;99.90;;;;;;4974817;28;20322;-80
2022/08/03 09:47:12;;;;;;;2.80;1.10;;;29.10;99.90;;;;;;4974939;28;20246;-81
2022/08/03 09:49:40;;;;;;;1.67;1.13;;;29.30;99.90;;;;;;4973669;28;20191;-80
2022/08/03 09:52:18;;;;;;;1.40;1.20;;;29.50;99.90;;;;;;4975683;28;20267;-81
2022/08/03 09:54:49;;;;;;;1.70;1.03;;;29.70;99.90;;;;;;4974675;28;20196;-80
2022/08/03 09:57:25;;;;;;;0.97;0.93;;;29.80;99.90;;;;;;4974454;28;20204;-80
2022/08/03 09:59:55;;;;;;;1.10;1.00;;;29.90;99.90;;;;;;4974944;28;20187;-80
2022/08/03 10:02:24;;;;;;;2.00;1.00;;;30.10;99.90;;;;;;4973832;28;20216;-79
2022/08/03 10:04:51;;;;;;;1.30;1.20;;;30.20;99.90;;;;;;4973932;28;20212;-80
2022/08/03 10:07:19;;;;;;;1.40;1.10;;;30.30;99.90;;;;;;4974906;28;20206;-79
2022/08/03 10:10:01;;;;;;;2.60;0.90;;;30.30;99.90;;;;;;4975378;28;20174;-80
2022/08/03 10:12:28;;;;;;;1.20;1.10;;;30.40;99.90;;;;;;4976100;28;20237;-80
2022/08/03 10:14:54;;;;;;;1.50;0.87;;;30.50;99.90;;;;;;4975723;28;20327;-80
2022/08/03 10:17:21;;;;;;;0.90;0.80;;;30.60;99.10;;;;;;4973309;28;20207;-80
2022/08/03 10:19:48;;;;;;;0.97;0.70;;;30.60;95.50;;;;;;4973308;28;20329;-79
2022/08/03 10:22:23;;;;;;;1.20;0.90;;;30.60;99.90;;;;;;4975010;28;20203;-80
2022/08/03 10:24:54;;;;;;;1.00;0.90;;;30.80;99.20;;;;;;4973862;28;20207;-80
2022/08/03 10:27:23;;;;;;;0.87;0.80;;;30.90;99.90;;;;;;4975205;28;20196;-80
2022/08/03 10:29:53;;;;;;;1.40;0.90;;;31.20;99.20;;;;;;4975443;28;20188;-81
2022/08/03 10:32:44;;;;;;;0.90;0.90;;;31.10;95.60;;;;;;4976405;28;20255;-80
2022/08/03 10:35:15;;;;;;;2.50;1.10;;;31.20;97.10;;;;;;4981214;28;20188;-80
2022/08/03 10:37:50;;;;;;;2.23;1.00;;;31.20;97.70;;;;;;4976729;28;20239;-81
2022/08/03 10:40:20;;;;;;;1.20;1.10;;;31.30;97.20;;;;;;4978231;28;20195;-81
2022/08/03 10:42:48;;;;;;;1.20;1.10;;;31.30;95.00;;;;;;4978814;28;20685;-80
2022/08/03 10:45:25;;;;;;;1.00;1.00;;;31.40;95.90;;;;;;4976735;28;20647;-80
2022/08/03 10:47:54;;;;;;;1.10;1.00;;;31.70;93.90;;;;;;4975450;28;20245;-80
2022/08/03 10:50:23;;;;;;;0.90;0.90;;;31.70;93.80;;;;;;4974425;28;20188;-80
2022/08/03 10:53:00;;;;;;;1.20;1.10;;;31.70;93.60;;;;;;4976076;28;20540;-81
2022/08/03 10:58:43;;;;;;;2.50;1.30;;;31.90;89.70;;;;;;4976271;28;20215;-81
2022/08/03 11:01:12;;;;;;;1.30;1.10;;;31.90;93.20;;;;;;4976957;28;20190;-81
2022/08/03 11:03:53;;;;;;;0.90;0.90;;;32.10;91.60;;;;;;4978198;28;20207;-81
2022/08/03 11:06:21;;;;;;;0.80;0.60;;;32.20;94.50;;;;;;4986044;28;20177;-81
2022/08/03 11:08:49;;;;;;;1.40;1.30;;;32.20;91.70;;;;;;4988256;28;20195;-81
2022/08/03 11:11:17;;;;;;;1.43;1.17;;;32.30;92.20;;;;;;4981383;28;20176;-81
2022/08/03 11:14:06;;;;;;;1.20;1.10;;;32.50;90.00;;;;;;4977786;28;20180;-81
2022/08/03 11:16:44;;;;;;;2.57;1.20;;;32.80;92.20;;;;;;4977223;28;20215;-80
2022/08/03 11:19:12;;;;;;;1.30;1.00;;;32.90;90.20;;;;;;4977567;28;20189;-80
2022/08/03 11:21:47;;;;;;;1.53;1.20;;;33.10;90.90;;;;;;4979005;28;20538;-80
2022/08/03 11:24:36;;;;;;;1.20;1.10;;;33.20;84.70;;;;;;4977392;28;20181;-81
2022/08/03 11:27:23;;;;;;;1.93;1.00;;;33.10;90.00;;;;;;4984337;28;20224;-80
2022/08/03 11:29:59;;;;;;;1.10;1.00;;;33.10;89.20;;;;;;4979360;28;20168;-81
2022/08/03 11:32:36;;;;;;;1.80;1.10;;;33.10;87.00;;;;;;4979536;28;20718;-81
2022/08/03 11:35:18;;;;;;;2.17;1.20;;;33.10;88.70;;;;;;4979010;28;20545;-80
2022/08/03 11:37:53;;;;;;;1.93;0.90;;;33.20;84.60;;;;;;4977346;28;20242;-80
2022/08/03 11:40:35;;;;;;;3.67;1.00;;;33.40;82.10;;;;;;4977746;28;20200;-81
2022/08/03 11:43:02;;;;;;;3.63;1.23;;;33.40;90.70;;;;;;4976743;28;20292;-81
2022/08/03 11:45:30;;;;;;;2.60;1.17;;;33.10;76.30;;;;;;4977542;28;20235;-82
2022/08/03 11:47:57;;;;;;;1.20;1.10;;;33.10;76.70;;;;;;4977941;28;20225;-81
2022/08/03 11:50:23;;;;;;;2.17;1.13;;;33.20;85.20;;;;;;4977825;28;20293;-83
2022/08/03 11:52:50;;;;;;;1.37;1.27;;;33.30;80.10;;;;;;4978452;28;20216;-83
2022/08/03 11:55:20;;;;;;;1.30;1.20;;;33.10;74.10;;;;;;4980398;28;20236;-81
2022/08/03 11:57:46;;;;;;;1.70;1.33;;;33.10;81.50;;;;;;4978593;28;20293;-81
2022/08/03 12:00:20;;;;;;;1.20;1.10;;;33.10;83.40;;;;;;4979502;28;20193;-82
2022/08/03 12:02:57;;;;;;;1.30;1.03;;;33.30;83.30;;;;;;4977490;28;20206;-79
2022/08/03 12:05:50;;;;;;;1.30;1.20;;;33.50;81.50;;;;;;4979130;28;20176;-80
2022/08/03 12:08:29;;;;;;;4.03;1.27;;;33.70;82.40;;;;;;4982073;28;20213;-81
2022/08/03 12:10:58;;;;;;;1.33;1.07;;;33.70;82.30;;;;;;4979421;28;20167;-80
2022/08/03 12:13:27;;;;;;;1.37;1.17;;;33.70;78.80;;;;;;4976969;28;20212;-80
2022/08/03 12:15:55;;;;;;;1.20;1.10;;;33.80;76.20;;;;;;4980772;28;20188;-80
2022/08/03 12:18:22;;;;;;;1.10;1.00;;;33.80;78.10;;;;;;4979743;28;20219;-82
2022/08/03 12:20:52;;;;;;;1.10;1.00;;;33.90;82.90;;;;;;4979591;28;20182;-79
2022/08/03 12:23:18;;;;;;;3.10;1.10;;;33.80;74.80;;;;;;4978531;28;20255;-82
2022/08/03 12:25:45;;;;;;;2.40;1.20;;;33.60;68.00;;;;;;4978563;28;20204;-81
2022/08/03 12:28:21;;;;;;;2.00;0.90;;;33.50;77.80;;;;;;4978993;28;20293;-79
2022/08/03 12:30:50;;;;;;;2.67;1.20;;;33.60;78.50;;;;;;4979262;28;20572;-80
2022/08/03 12:33:25;;;;;;;0.90;0.90;;;33.80;76.70;;;;;;4980783;28;20181;-81
2022/08/03 12:36:03;;;;;;;1.20;1.10;;;34.10;75.30;;;;;;4979439;28;20188;-81
2022/08/03 12:38:31;;;;;;;1.50;1.27;;;34.20;74.00;;;;;;4978267;28;20224;-81
2022/08/03 12:40:58;;;;;;;2.23;1.10;;;34.50;74.50;;;;;;4980038;28;20207;-82
2022/08/03 12:43:25;;;;;;;1.20;1.10;;;34.50;67.30;;;;;;4979369;28;20270;-82
2022/08/03 12:45:50;;;;;;;1.40;1.10;;;34.40;73.20;;;;;;4980202;28;20194;-82
2022/08/03 12:48:16;;;;;;;1.77;1.20;;;34.40;68.70;;;;;;4979043;28;20283;-82
2022/08/03 12:50:42;;;;;;;1.40;1.30;;;34.20;74.40;;;;;;4978311;28;20223;-81
2022/08/03 12:53:09;;;;;;;2.07;1.17;;;34.30;74.20;;;;;;4978405;28;20192;-81
2022/08/03 12:55:36;;;;;;;2.03;1.20;;;34.40;80.90;;;;;;4978130;28;20193;-82
2022/08/03 12:58:09;;;;;;;1.73;1.50;;;34.50;75.80;;;;;;4978635;28;20602;-82
2022/08/03 13:00:35;;;;;;;3.17;1.50;;;34.80;73.00;;;;;;4978976;28;20204;-82
2022/08/03 13:03:07;;;;;;;2.80;1.20;;;34.70;69.80;;;;;;4978956;28;20295;-82
2022/08/03 13:05:43;;;;;;;1.63;1.30;;;34.50;67.00;;;;;;4977825;28;20267;-82
2022/08/03 13:08:24;;;;;;;1.27;1.00;;;34.40;67.60;;;;;;4976627;28;20200;-82